sensor_id;sensor_type;location;lat;lon;timestamp;temperature;humidity
75821;DHT22;64454;51.984;9.838;2023-04-01T00:01:46;11.70;99.90
75821;DHT22;64454;51.984;9.838;2023-04-01T00:04:13;11.70;99.90
75821;DHT22;64454;51.984;9.838;2023-04-01T00:06:41;11.70;99.90
75821;DHT22;64454;51.984;9.838;2023-04-01T00:09:09;11.70;99.90
75821;DHT22;64454;51.984;9.838;2023-04-01T00:11:36;11.80;99.90
75821;DHT22;64454;51.984;9.838;2023-04-01T00:14:04;11.80;99.90
75821;DHT22;64454;51.984;9.838;2023-04-01T00:16:31;11.90;99.90
75821;DHT22;64454;51.984;9.838;2023-04-01T00:18:58;11.80;99.90
75821;DHT22;64454;51.984;9.838;2023-04-01T00:21:25;11.80;99.90
75821;DHT22;64454;51.984;9.838;2023-04-01T00:23:52;11.80;87.10
75821;DHT22;64454;51.984;9.838;2023-04-01T00:26:21;11.80;87.90
75821;DHT22;64454;51.984;9.838;2023-04-01T00:28:48;11.80;90.40
75821;DHT22;64454;51.984;9.838;2023-04-01T00:31:16;11.80;98.00
75821;DHT22;64454;51.984;9.838;2023-04-01T00:33:43;11.80;91.80
75821;DHT22;64454;51.984;9.838;2023-04-01T00:36:11;11.80;94.20
75821;DHT22;64454;51.984;9.838;2023-04-01T00:38:39;11.80;94.60
75821;DHT22;64454;51.984;9.838;2023-04-01T00:41:07;11.70;98.50
75821;DHT22;64454;51.984;9.838;2023-04-01T00:43:36;11.70;99.90
75821;DHT22;64454;51.984;9.838;2023-04-01T00:46:03;11.70;99.90
75821;DHT22;64454;51.984;9.838;2023-04-01T00:48:33;11.70;99.90
75821;DHT22;64454;51.984;9.838;2023-04-01T00:51:04;11.60;99.90
75821;DHT22;64454;51.984;9.838;2023-04-01T00:53:38;11.50;99.90
75821;DHT22;64454;51.984;9.838;2023-04-01T00:56:11;11.50;99.90
75821;DHT22;64454;51.984;9.838;2023-04-01T00:58:45;11.40;99.90
75821;DHT22;64454;51.984;9.838;2023-04-01T01:01:16;11.40;99.90
75821;DHT22;64454;51.984;9.838;2023-04-01T01:03:43;11.30;99.90
75821;DHT22;64454;51.984;9.838;2023-04-01T01:06:20;11.30;99.90
75821;DHT22;64454;51.984;9.838;2023-04-01T01:09:15;11.40;99.90
75821;DHT22;64454;51.984;9.838;2023-04-01T01:11:55;11.30;99.90
75821;DHT22;64454;51.984;9.838;2023-04-01T01:14:40;11.40;99.90
75821;DHT22;64454;51.984;9.838;2023-04-01T01:17:21;11.50;99.90
75821;DHT22;64454;51.984;9.838;2023-04-01T01:23:28;11.50;99.90
75821;DHT22;64454;51.984;9.838;2023-04-01T01:26:44;11.50;99.90
75821;DHT22;64454;51.984;9.838;2023-04-01T01:29:49;11.50;99.90
75821;DHT22;64454;51.984;9.838;2023-04-01T01:35:51;11.50;99.90
75821;DHT22;64454;51.984;9.838;2023-04-01T01:38:22;11.40;99.90
75821;DHT22;64454;51.984;9.838;2023-04-01T01:40:51;11.40;99.90
75821;DHT22;64454;51.984;9.838;2023-04-01T01:43:22;11.40;99.90
75821;DHT22;64454;51.984;9.838;2023-04-01T01:45:53;11.40;99.90
75821;DHT22;64454;51.984;9.838;2023-04-01T01:48:23;11.40;99.90
75821;DHT22;64454;51.984;9.838;2023-04-01T01:50:54;11.40;99.90
75821;DHT22;64454;51.984;9.838;2023-04-01T01:53:21;11.30;99.90
75821;DHT22;64454;51.984;9.838;2023-04-01T01:55:48;11.40;99.90
75821;DHT22;64454;51.984;9.838;2023-04-01T01:58:19;11.40;99.90
75821;DHT22;64454;51.984;9.838;2023-04-01T02:00:53;11.40;99.90
75821;DHT22;64454;51.984;9.838;2023-04-01T02:03:24;11.50;99.90
75821;DHT22;64454;51.984;9.838;2023-04-01T02:05:57;11.50;99.90
75821;DHT22;64454;51.984;9.838;2023-04-01T02:08:28;11.50;99.90
75821;DHT22;64454;51.984;9.838;2023-04-01T02:11:02;11.50;99.90
75821;DHT22;64454;51.984;9.838;2023-04-01T02:13:34;11.50;99.90
75821;DHT22;64454;51.984;9.838;2023-04-01T02:16:11;11.50;99.90
75821;DHT22;64454;51.984;9.838;2023-04-01T02:18:41;11.40;99.90
75821;DHT22;64454;51.984;9.838;2023-04-01T02:21:12;11.40;99.90
75821;DHT22;64454;51.984;9.838;2023-04-01T02:23:41;11.40;99.90
75821;DHT22;64454;51.984;9.838;2023-04-01T02:26:09;11.40;99.90
75821;DHT22;64454;51.984;9.838;2023-04-01T02:28:38;11.40;99.90
75821;DHT22;64454;51.984;9.838;2023-04-01T02:31:08;11.40;99.90
75821;DHT22;64454;51.984;9.838;2023-04-01T02:33:37;11.40;99.90
75821;DHT22;64454;51.984;9.838;2023-04-01T02:36:06;11.40;99.90
75821;DHT22;64454;51.984;9.838;2023-04-01T02:38:39;11.40;99.90
75821;DHT22;64454;51.984;9.838;2023-04-01T02:41:07;11.30;99.90
75821;DHT22;64454;51.984;9.838;2023-04-01T02:43:33;11.40;99.90
75821;DHT22;64454;51.984;9.838;2023-04-01T02:46:00;11.40;99.90
75821;DHT22;64454;51.984;9.838;2023-04-01T02:48:28;11.30;99.90
75821;DHT22;64454;51.984;9.838;2023-04-01T02:50:55;11.30;99.90
75821;DHT22;64454;51.984;9.838;2023-04-01T02:53:23;11.30;99.90
75821;DHT22;64454;51.984;9.838;2023-04-01T02:55:50;11.30;99.90
75821;DHT22;64454;51.984;9.838;2023-04-01T02:58:17;11.40;99.90
75821;DHT22;64454;51.984;9.838;2023-04-01T03:00:44;11.40;99.90
75821;DHT22;64454;51.984;9.838;2023-04-01T03:03:13;11.50;99.90
75821;DHT22;64454;51.984;9.838;2023-04-01T03:05:40;11.40;99.90
75821;DHT22;64454;51.984;9.838;2023-04-01T03:08:07;11.40;99.90
75821;DHT22;64454;51.984;9.838;2023-04-01T03:10:35;11.30;99.90
75821;DHT22;64454;51.984;9.838;2023-04-01T03:13:02;11.40;99.90
75821;DHT22;64454;51.984;9.838;2023-04-01T03:15:29;11.40;99.90
75821;DHT22;64454;51.984;9.838;2023-04-01T03:17:56;11.40;99.90
75821;DHT22;64454;51.984;9.838;2023-04-01T03:20:22;11.40;99.90
75821;DHT22;64454;51.984;9.838;2023-04-01T03:22:49;11.40;99.90
75821;DHT22;64454;51.984;9.838;2023-04-01T03:25:17;11.30;99.90
75821;DHT22;64454;51.984;9.838;2023-04-01T03:27:45;11.40;99.90
75821;DHT22;64454;51.984;9.838;2023-04-01T03:30:12;11.30;99.90
75821;DHT22;64454;51.984;9.838;2023-04-01T03:32:39;11.30;99.90
75821;DHT22;64454;51.984;9.838;2023-04-01T03:35:06;11.30;99.90
75821;DHT22;64454;51.984;9.838;2023-04-01T03:37:35;11.30;99.90
75821;DHT22;64454;51.984;9.838;2023-04-01T03:40:02;11.20;99.90
75821;DHT22;64454;51.984;9.838;2023-04-01T03:42:30;11.20;99.90
75821;DHT22;64454;51.984;9.838;2023-04-01T03:44:59;11.30;99.90
75821;DHT22;64454;51.984;9.838;2023-04-01T03:47:25;11.20;99.90
75821;DHT22;64454;51.984;9.838;2023-04-01T03:49:52;11.10;99.90
75821;DHT22;64454;51.984;9.838;2023-04-01T03:52:19;11.10;99.90
75821;DHT22;64454;51.984;9.838;2023-04-01T03:54:46;11.10;99.90
75821;DHT22;64454;51.984;9.838;2023-04-01T03:57:13;11.10;99.90
75821;DHT22;64454;51.984;9.838;2023-04-01T03:59:40;11.10;99.90
75821;DHT22;64454;51.984;9.838;2023-04-01T04:02:08;11.10;99.90
75821;DHT22;64454;51.984;9.838;2023-04-01T04:04:35;11.20;99.90
75821;DHT22;64454;51.984;9.838;2023-04-01T04:07:02;11.20;99.90
75821;DHT22;64454;51.984;9.838;2023-04-01T04:09:30;11.10;99.90
75821;DHT22;64454;51.984;9.838;2023-04-01T04:11:57;11.00;99.90
75821;DHT22;64454;51.984;9.838;2023-04-01T04:14:24;11.00;99.90
75821;DHT22;64454;51.984;9.838;2023-04-01T04:16:51;11.00;99.90
75821;DHT22;64454;51.984;9.838;2023-04-01T04:19:20;11.00;99.90
75821;DHT22;64454;51.984;9.838;2023-04-01T04:21:47;11.10;99.90
75821;DHT22;64454;51.984;9.838;2023-04-01T04:24:14;11.10;99.90
75821;DHT22;64454;51.984;9.838;2023-04-01T04:26:43;11.10;99.90
75821;DHT22;64454;51.984;9.838;2023-04-01T04:29:10;11.10;99.90
75821;DHT22;64454;51.984;9.838;2023-04-01T04:31:37;11.10;99.90
75821;DHT22;64454;51.984;9.838;2023-04-01T04:34:04;11.10;99.90
75821;DHT22;64454;51.984;9.838;2023-04-01T04:36:32;11.00;99.90
75821;DHT22;64454;51.984;9.838;2023-04-01T04:38:59;11.00;99.90
75821;DHT22;64454;51.984;9.838;2023-04-01T04:41:27;10.90;99.90
75821;DHT22;64454;51.984;9.838;2023-04-01T04:43:55;10.90;99.90
75821;DHT22;64454;51.984;9.838;2023-04-01T04:46:24;10.90;99.90
75821;DHT22;64454;51.984;9.838;2023-04-01T04:48:51;10.90;99.90
75821;DHT22;64454;51.984;9.838;2023-04-01T04:51:19;10.90;99.90
75821;DHT22;64454;51.984;9.838;2023-04-01T04:53:49;10.90;99.90
75821;DHT22;64454;51.984;9.838;2023-04-01T04:56:18;10.90;99.90
75821;DHT22;64454;51.984;9.838;2023-04-01T04:58:45;10.90;99.90
75821;DHT22;64454;51.984;9.838;2023-04-01T05:01:14;10.90;99.90
75821;DHT22;64454;51.984;9.838;2023-04-01T05:03:42;10.90;99.90
75821;DHT22;64454;51.984;9.838;2023-04-01T05:06:28;10.90;99.90
75821;DHT22;64454;51.984;9.838;2023-04-01T05:09:16;10.90;99.90
75821;DHT22;64454;51.984;9.838;2023-04-01T05:12:04;10.80;99.90
75821;DHT22;64454;51.984;9.838;2023-04-01T05:14:51;10.80;99.90
75821;DHT22;64454;51.984;9.838;2023-04-01T05:17:38;10.80;99.90
75821;DHT22;64454;51.984;9.838;2023-04-01T05:20:06;10.90;99.90
75821;DHT22;64454;51.984;9.838;2023-04-01T05:22:33;10.80;99.90
75821;DHT22;64454;51.984;9.838;2023-04-01T05:25:01;10.80;99.90
75821;DHT22;64454;51.984;9.838;2023-04-01T05:27:28;10.90;99.90
75821;DHT22;64454;51.984;9.838;2023-04-01T05:29:55;11.00;99.90
75821;DHT22;64454;51.984;9.838;2023-04-01T05:32:22;11.00;99.90
75821;DHT22;64454;51.984;9.838;2023-04-01T05:34:50;11.00;99.90
75821;DHT22;64454;51.984;9.838;2023-04-01T05:37:17;10.90;99.90
75821;DHT22;64454;51.984;9.838;2023-04-01T05:39:43;10.90;99.90
75821;DHT22;64454;51.984;9.838;2023-04-01T05:42:12;10.90;99.90
75821;DHT22;64454;51.984;9.838;2023-04-01T05:44:39;11.00;99.90
75821;DHT22;64454;51.984;9.838;2023-04-01T05:47:05;11.00;99.90
75821;DHT22;64454;51.984;9.838;2023-04-01T05:49:33;11.10;99.90
75821;DHT22;64454;51.984;9.838;2023-04-01T05:52:00;11.10;99.90
75821;DHT22;64454;51.984;9.838;2023-04-01T05:54:27;11.20;99.90
75821;DHT22;64454;51.984;9.838;2023-04-01T05:56:54;11.20;99.90
75821;DHT22;64454;51.984;9.838;2023-04-01T05:59:22;11.10;99.90
75821;DHT22;64454;51.984;9.838;2023-04-01T06:01:49;11.10;99.90
75821;DHT22;64454;51.984;9.838;2023-04-01T06:04:18;11.20;99.90
75821;DHT22;64454;51.984;9.838;2023-04-01T06:06:46;11.20;99.90
75821;DHT22;64454;51.984;9.838;2023-04-01T06:09:15;11.30;99.90
75821;DHT22;64454;51.984;9.838;2023-04-01T06:12:01;11.30;99.90
75821;DHT22;64454;51.984;9.838;2023-04-01T06:14:52;11.30;99.90
75821;DHT22;64454;51.984;9.838;2023-04-01T06:17:40;11.40;99.90
75821;DHT22;64454;51.984;9.838;2023-04-01T06:20:23;11.30;99.90
75821;DHT22;64454;51.984;9.838;2023-04-01T06:23:06;11.30;99.90
75821;DHT22;64454;51.984;9.838;2023-04-01T06:26:10;11.30;99.90
75821;DHT22;64454;51.984;9.838;2023-04-01T06:32:30;11.30;99.90
75821;DHT22;64454;51.984;9.838;2023-04-01T06:35:43;11.30;99.90
75821;DHT22;64454;51.984;9.838;2023-04-01T06:38:33;11.20;99.90
75821;DHT22;64454;51.984;9.838;2023-04-01T06:41:21;11.20;99.90
75821;DHT22;64454;51.984;9.838;2023-04-01T06:44:12;11.20;99.90
75821;DHT22;64454;51.984;9.838;2023-04-01T06:46:45;11.20;99.90
75821;DHT22;64454;51.984;9.838;2023-04-01T06:49:30;11.10;99.90
75821;DHT22;64454;51.984;9.838;2023-04-01T06:52:13;11.10;99.90
75821;DHT22;64454;51.984;9.838;2023-04-01T06:54:53;11.10;99.90
75821;DHT22;64454;51.984;9.838;2023-04-01T06:57:31;11.20;99.90
75821;DHT22;64454;51.984;9.838;2023-04-01T07:00:04;11.30;99.90
75821;DHT22;64454;51.984;9.838;2023-04-01T07:02:43;11.30;99.90
75821;DHT22;64454;51.984;9.838;2023-04-01T07:05:20;11.40;99.90
75821;DHT22;64454;51.984;9.838;2023-04-01T07:07:52;11.50;99.90
75821;DHT22;64454;51.984;9.838;2023-04-01T07:10:31;11.50;99.90
75821;DHT22;64454;51.984;9.838;2023-04-01T07:13:05;11.70;99.90
75821;DHT22;64454;51.984;9.838;2023-04-01T07:15:41;11.80;99.90
75821;DHT22;64454;51.984;9.838;2023-04-01T07:18:14;11.80;99.90
75821;DHT22;64454;51.984;9.838;2023-04-01T07:20:46;11.90;99.90
75821;DHT22;64454;51.984;9.838;2023-04-01T07:23:22;11.90;99.90
75821;DHT22;64454;51.984;9.838;2023-04-01T07:25:53;12.00;99.90
75821;DHT22;64454;51.984;9.838;2023-04-01T07:28:30;11.90;99.90
75821;DHT22;64454;51.984;9.838;2023-04-01T07:31:07;11.90;99.90
75821;DHT22;64454;51.984;9.838;2023-04-01T07:33:52;12.00;99.90
75821;DHT22;64454;51.984;9.838;2023-04-01T07:36:31;12.00;99.90
75821;DHT22;64454;51.984;9.838;2023-04-01T07:39:12;12.00;99.90
75821;DHT22;64454;51.984;9.838;2023-04-01T07:41:53;11.90;99.90
75821;DHT22;64454;51.984;9.838;2023-04-01T07:44:31;11.80;99.90
75821;DHT22;64454;51.984;9.838;2023-04-01T07:47:17;11.80;99.90
75821;DHT22;64454;51.984;9.838;2023-04-01T07:50:13;11.80;99.90
75821;DHT22;64454;51.984;9.838;2023-04-01T07:52:56;11.90;99.90
75821;DHT22;64454;51.984;9.838;2023-04-01T07:55:39;11.90;99.90
75821;DHT22;64454;51.984;9.838;2023-04-01T07:58:15;12.00;99.90
75821;DHT22;64454;51.984;9.838;2023-04-01T08:00:51;12.10;99.90
75821;DHT22;64454;51.984;9.838;2023-04-01T08:03:38;12.20;99.90
75821;DHT22;64454;51.984;9.838;2023-04-01T08:06:20;12.20;99.90
75821;DHT22;64454;51.984;9.838;2023-04-01T08:09:02;12.30;99.90
75821;DHT22;64454;51.984;9.838;2023-04-01T08:11:47;12.30;75.30
75821;DHT22;64454;51.984;9.838;2023-04-01T08:14:32;12.20;70.70
75821;DHT22;64454;51.984;9.838;2023-04-01T08:17:09;12.20;89.50
75821;DHT22;64454;51.984;9.838;2023-04-01T08:19:56;12.30;92.80
75821;DHT22;64454;51.984;9.838;2023-04-01T08:22:37;12.40;60.20
75821;DHT22;64454;51.984;9.838;2023-04-01T08:25:16;12.40;63.50
75821;DHT22;64454;51.984;9.838;2023-04-01T08:27:48;12.50;53.60
75821;DHT22;64454;51.984;9.838;2023-04-01T08:30:23;12.50;42.70
75821;DHT22;64454;51.984;9.838;2023-04-01T08:32:55;12.60;36.50
75821;DHT22;64454;51.984;9.838;2023-04-01T08:35:29;12.60;37.10
75821;DHT22;64454;51.984;9.838;2023-04-01T08:38:01;12.70;31.90
75821;DHT22;64454;51.984;9.838;2023-04-01T08:40:57;12.60;29.10
75821;DHT22;64454;51.984;9.838;2023-04-01T08:43:42;12.70;42.10
75821;DHT22;64454;51.984;9.838;2023-04-01T08:46:47;12.80;38.10
75821;DHT22;64454;51.984;9.838;2023-04-01T08:49:50;12.70;26.20
75821;DHT22;64454;51.984;9.838;2023-04-01T08:52:34;12.60;34.60
75821;DHT22;64454;51.984;9.838;2023-04-01T08:55:22;12.50;45.00
75821;DHT22;64454;51.984;9.838;2023-04-01T08:58:08;12.40;55.10
75821;DHT22;64454;51.984;9.838;2023-04-01T09:00:54;12.30;76.90
75821;DHT22;64454;51.984;9.838;2023-04-01T09:03:41;12.30;73.70
75821;DHT22;64454;51.984;9.838;2023-04-01T09:06:29;12.30;85.10
75821;DHT22;64454;51.984;9.838;2023-04-01T09:09:37;12.30;99.90
75821;DHT22;64454;51.984;9.838;2023-04-01T09:12:42;12.40;99.90
75821;DHT22;64454;51.984;9.838;2023-04-01T09:15:28;12.60;99.90
75821;DHT22;64454;51.984;9.838;2023-04-01T09:21:27;12.60;81.80
75821;DHT22;64454;51.984;9.838;2023-04-01T09:24:30;12.50;51.50
75821;DHT22;64454;51.984;9.838;2023-04-01T09:27:13;12.50;79.40
75821;DHT22;64454;51.984;9.838;2023-04-01T09:33:41;12.40;76.50
75821;DHT22;64454;51.984;9.838;2023-04-01T09:36:26;12.30;64.60
75821;DHT22;64454;51.984;9.838;2023-04-01T09:39:35;12.40;72.80
75821;DHT22;64454;51.984;9.838;2023-04-01T09:42:15;12.50;89.10
75821;DHT22;64454;51.984;9.838;2023-04-01T09:44:58;12.60;79.50
75821;DHT22;64454;51.984;9.838;2023-04-01T09:47:40;12.60;62.20
75821;DHT22;64454;51.984;9.838;2023-04-01T09:50:29;12.70;37.90
75821;DHT22;64454;51.984;9.838;2023-04-01T09:53:14;12.90;66.50
75821;DHT22;64454;51.984;9.838;2023-04-01T09:56:16;12.90;44.80
75821;DHT22;64454;51.984;9.838;2023-04-01T10:06:18;13.00;40.30
75821;DHT22;64454;51.984;9.838;2023-04-01T10:12:35;13.10;38.10
75821;DHT22;64454;51.984;9.838;2023-04-01T10:15:34;13.40;33.30
75821;DHT22;64454;51.984;9.838;2023-04-01T10:21:55;13.60;21.10
75821;DHT22;64454;51.984;9.838;2023-04-01T10:24:49;13.90;15.90
75821;DHT22;64454;51.984;9.838;2023-04-01T10:27:40;14.20;1.00
75821;DHT22;64454;51.984;9.838;2023-04-01T10:34:20;14.50;1.00
75821;DHT22;64454;51.984;9.838;2023-04-01T10:37:08;14.50;1.00
75821;DHT22;64454;51.984;9.838;2023-04-01T10:40:16;14.30;1.00
75821;DHT22;64454;51.984;9.838;2023-04-01T10:43:32;14.10;1.00
75821;DHT22;64454;51.984;9.838;2023-04-01T10:47:03;13.90;1.00
75821;DHT22;64454;51.984;9.838;2023-04-01T10:50:13;13.80;17.90
75821;DHT22;64454;51.984;9.838;2023-04-01T10:53:32;13.80;28.10
75821;DHT22;64454;51.984;9.838;2023-04-01T10:56:23;13.90;22.20
75821;DHT22;64454;51.984;9.838;2023-04-01T11:02:50;13.90;9.20
75821;DHT22;64454;51.984;9.838;2023-04-01T11:05:50;14.00;11.50
75821;DHT22;64454;51.984;9.838;2023-04-01T11:19:40;14.40;7.00
75821;DHT22;64454;51.984;9.838;2023-04-01T11:22:36;14.50;1.00
75821;DHT22;64454;51.984;9.838;2023-04-01T11:25:29;14.60;1.00
75821;DHT22;64454;51.984;9.838;2023-04-01T11:28:34;14.70;1.00
75821;DHT22;64454;51.984;9.838;2023-04-01T11:31:43;14.70;1.00
75821;DHT22;64454;51.984;9.838;2023-04-01T11:34:35;14.80;1.00
75821;DHT22;64454;51.984;9.838;2023-04-01T11:37:35;14.90;1.00
75821;DHT22;64454;51.984;9.838;2023-04-01T11:40:14;14.90;1.00
75821;DHT22;64454;51.984;9.838;2023-04-01T11:42:57;15.00;1.00
75821;DHT22;64454;51.984;9.838;2023-04-01T11:45:35;14.90;1.00
75821;DHT22;64454;51.984;9.838;2023-04-01T11:48:17;15.00;1.00
75821;DHT22;64454;51.984;9.838;2023-04-01T11:51:06;14.90;1.00
75821;DHT22;64454;51.984;9.838;2023-04-01T11:54:01;14.80;1.00
75821;DHT22;64454;51.984;9.838;2023-04-01T11:56:47;15.00;1.00
75821;DHT22;64454;51.984;9.838;2023-04-01T11:59:51;15.10;1.00
75821;DHT22;64454;51.984;9.838;2023-04-01T12:02:36;15.30;1.00
75821;DHT22;64454;51.984;9.838;2023-04-01T12:05:28;15.30;1.00
75821;DHT22;64454;51.984;9.838;2023-04-01T12:08:13;15.40;1.00
75821;DHT22;64454;51.984;9.838;2023-04-01T12:10:53;15.00;1.00
75821;DHT22;64454;51.984;9.838;2023-04-01T12:13:37;14.80;1.00
75821;DHT22;64454;51.984;9.838;2023-04-01T12:16:32;14.60;1.00
75821;DHT22;64454;51.984;9.838;2023-04-01T12:19:15;14.30;1.00
75821;DHT22;64454;51.984;9.838;2023-04-01T12:22:00;14.10;1.00
75821;DHT22;64454;51.984;9.838;2023-04-01T12:25:00;13.90;1.00
75821;DHT22;64454;51.984;9.838;2023-04-01T12:27:43;14.00;1.00
75821;DHT22;64454;51.984;9.838;2023-04-01T12:30:42;13.90;1.00
75821;DHT22;64454;51.984;9.838;2023-04-01T12:33:56;13.70;1.00
75821;DHT22;64454;51.984;9.838;2023-04-01T12:36:52;13.60;1.00
75821;DHT22;64454;51.984;9.838;2023-04-01T12:39:44;13.50;1.00
75821;DHT22;64454;51.984;9.838;2023-04-01T12:42:41;13.40;14.50
75821;DHT22;64454;51.984;9.838;2023-04-01T12:45:28;13.30;72.10
75821;DHT22;64454;51.984;9.838;2023-04-01T12:48:21;13.20;99.90
75821;DHT22;64454;51.984;9.838;2023-04-01T12:54:37;13.30;99.90
75821;DHT22;64454;51.984;9.838;2023-04-01T12:57:25;13.20;99.90
75821;DHT22;64454;51.984;9.838;2023-04-01T13:00:30;13.10;99.90
75821;DHT22;64454;51.984;9.838;2023-04-01T13:03:21;13.10;99.90
75821;DHT22;64454;51.984;9.838;2023-04-01T13:06:20;13.20;99.90
75821;DHT22;64454;51.984;9.838;2023-04-01T13:09:06;13.40;99.90
75821;DHT22;64454;51.984;9.838;2023-04-01T13:11:57;13.70;99.90
75821;DHT22;64454;51.984;9.838;2023-04-01T13:14:51;13.90;99.90
75821;DHT22;64454;51.984;9.838;2023-04-01T13:17:43;14.00;99.90
75821;DHT22;64454;51.984;9.838;2023-04-01T13:20:22;14.00;99.90
75821;DHT22;64454;51.984;9.838;2023-04-01T13:23:09;14.10;99.90
75821;DHT22;64454;51.984;9.838;2023-04-01T13:25:51;14.20;99.90
75821;DHT22;64454;51.984;9.838;2023-04-01T13:28:31;14.30;99.90
75821;DHT22;64454;51.984;9.838;2023-04-01T13:31:24;14.20;99.90
75821;DHT22;64454;51.984;9.838;2023-04-01T13:34:08;14.10;99.90
75821;DHT22;64454;51.984;9.838;2023-04-01T13:36:55;14.20;99.90
75821;DHT22;64454;51.984;9.838;2023-04-01T13:39:43;14.00;99.90
75821;DHT22;64454;51.984;9.838;2023-04-01T13:42:21;13.90;99.90
75821;DHT22;64454;51.984;9.838;2023-04-01T13:44:59;13.80;99.90
75821;DHT22;64454;51.984;9.838;2023-04-01T13:51:00;13.90;99.90
75821;DHT22;64454;51.984;9.838;2023-04-01T13:54:19;13.90;99.90
75821;DHT22;64454;51.984;9.838;2023-04-01T13:57:08;14.00;99.90
75821;DHT22;64454;51.984;9.838;2023-04-01T14:00:06;14.10;99.90
75821;DHT22;64454;51.984;9.838;2023-04-01T14:03:21;14.20;99.90
75821;DHT22;64454;51.984;9.838;2023-04-01T14:06:13;14.30;99.90
75821;DHT22;64454;51.984;9.838;2023-04-01T14:09:06;14.50;99.90
75821;DHT22;64454;51.984;9.838;2023-04-01T14:11:55;14.60;99.90
75821;DHT22;64454;51.984;9.838;2023-04-01T14:14:36;14.80;87.00
75821;DHT22;64454;51.984;9.838;2023-04-01T14:17:29;14.90;82.60
75821;DHT22;64454;51.984;9.838;2023-04-01T14:20:29;15.00;59.60
75821;DHT22;64454;51.984;9.838;2023-04-01T14:23:29;14.90;30.80
75821;DHT22;64454;51.984;9.838;2023-04-01T14:26:09;14.90;42.80
75821;DHT22;64454;51.984;9.838;2023-04-01T14:28:49;14.90;26.70
75821;DHT22;64454;51.984;9.838;2023-04-01T14:31:34;14.90;39.70
75821;DHT22;64454;51.984;9.838;2023-04-01T14:34:22;14.80;30.40
75821;DHT22;64454;51.984;9.838;2023-04-01T14:37:07;14.70;36.40
75821;DHT22;64454;51.984;9.838;2023-04-01T14:40:06;14.60;47.30
75821;DHT22;64454;51.984;9.838;2023-04-01T14:49:18;14.30;72.40
75821;DHT22;64454;51.984;9.838;2023-04-01T14:51:49;14.20;90.50
75821;DHT22;64454;51.984;9.838;2023-04-01T14:54:21;14.20;99.90
75821;DHT22;64454;51.984;9.838;2023-04-01T14:57:09;14.00;99.90
75821;DHT22;64454;51.984;9.838;2023-04-01T14:59:40;13.70;99.90
75821;DHT22;64454;51.984;9.838;2023-04-01T15:02:28;13.50;99.90
75821;DHT22;64454;51.984;9.838;2023-04-01T15:05:15;13.40;99.90
75821;DHT22;64454;51.984;9.838;2023-04-01T15:08:09;13.40;99.90
75821;DHT22;64454;51.984;9.838;2023-04-01T15:11:21;13.40;99.90
75821;DHT22;64454;51.984;9.838;2023-04-01T15:14:14;13.50;99.90
75821;DHT22;64454;51.984;9.838;2023-04-01T15:16:58;13.60;99.90
75821;DHT22;64454;51.984;9.838;2023-04-01T15:19:42;13.70;99.90
75821;DHT22;64454;51.984;9.838;2023-04-01T15:22:37;13.90;99.90
75821;DHT22;64454;51.984;9.838;2023-04-01T15:25:23;14.00;99.90
75821;DHT22;64454;51.984;9.838;2023-04-01T15:28:12;14.10;99.90
75821;DHT22;64454;51.984;9.838;2023-04-01T15:30:50;14.20;99.90
75821;DHT22;64454;51.984;9.838;2023-04-01T15:36:32;14.30;99.90
75821;DHT22;64454;51.984;9.838;2023-04-01T15:39:13;14.20;99.90
75821;DHT22;64454;51.984;9.838;2023-04-01T15:41:56;14.00;99.90
75821;DHT22;64454;51.984;9.838;2023-04-01T15:44:58;13.90;99.90
75821;DHT22;64454;51.984;9.838;2023-04-01T15:47:37;13.80;99.90
75821;DHT22;64454;51.984;9.838;2023-04-01T15:50:29;13.80;99.90
75821;DHT22;64454;51.984;9.838;2023-04-01T15:53:22;13.80;99.90
75821;DHT22;64454;51.984;9.838;2023-04-01T15:56:15;13.70;99.90
75821;DHT22;64454;51.984;9.838;2023-04-01T15:59:09;13.60;99.90
75821;DHT22;64454;51.984;9.838;2023-04-01T16:01:50;13.50;99.90
75821;DHT22;64454;51.984;9.838;2023-04-01T16:04:46;13.60;99.90
75821;DHT22;64454;51.984;9.838;2023-04-01T16:07:48;13.60;99.90
75821;DHT22;64454;51.984;9.838;2023-04-01T16:13:40;13.80;99.90
75821;DHT22;64454;51.984;9.838;2023-04-01T16:16:23;13.80;99.90
75821;DHT22;64454;51.984;9.838;2023-04-01T16:19:21;13.90;99.90
75821;DHT22;64454;51.984;9.838;2023-04-01T16:22:02;13.90;99.90
75821;DHT22;64454;51.984;9.838;2023-04-01T16:24:35;13.90;99.90
75821;DHT22;64454;51.984;9.838;2023-04-01T16:27:13;13.80;99.90
75821;DHT22;64454;51.984;9.838;2023-04-01T16:29:46;13.80;99.90
75821;DHT22;64454;51.984;9.838;2023-04-01T16:32:29;13.90;99.90
75821;DHT22;64454;51.984;9.838;2023-04-01T16:35:15;13.80;99.90
75821;DHT22;64454;51.984;9.838;2023-04-01T16:37:51;13.60;99.90
75821;DHT22;64454;51.984;9.838;2023-04-01T16:40:32;13.40;99.90
75821;DHT22;64454;51.984;9.838;2023-04-01T16:43:13;13.30;99.90
75821;DHT22;64454;51.984;9.838;2023-04-01T16:45:55;13.20;99.90
75821;DHT22;64454;51.984;9.838;2023-04-01T16:48:52;13.20;99.90
75821;DHT22;64454;51.984;9.838;2023-04-01T16:51:34;13.10;99.90
75821;DHT22;64454;51.984;9.838;2023-04-01T16:54:16;12.90;99.90
75821;DHT22;64454;51.984;9.838;2023-04-01T16:56:56;12.60;99.90
75821;DHT22;64454;51.984;9.838;2023-04-01T16:59:36;12.40;99.90
75821;DHT22;64454;51.984;9.838;2023-04-01T17:02:12;12.10;99.90
75821;DHT22;64454;51.984;9.838;2023-04-01T17:04:44;12.10;99.90
75821;DHT22;64454;51.984;9.838;2023-04-01T17:07:24;11.80;99.90
75821;DHT22;64454;51.984;9.838;2023-04-01T17:10:13;11.80;99.90
75821;DHT22;64454;51.984;9.838;2023-04-01T17:13:03;11.80;99.90
75821;DHT22;64454;51.984;9.838;2023-04-01T17:15:49;11.80;99.90
75821;DHT22;64454;51.984;9.838;2023-04-01T17:18:28;11.80;99.90
75821;DHT22;64454;51.984;9.838;2023-04-01T17:21:09;11.80;99.90
75821;DHT22;64454;51.984;9.838;2023-04-01T17:23:44;11.70;99.90
75821;DHT22;64454;51.984;9.838;2023-04-01T17:26:25;11.60;99.90
75821;DHT22;64454;51.984;9.838;2023-04-01T17:29:04;11.50;99.90
75821;DHT22;64454;51.984;9.838;2023-04-01T17:31:54;11.40;99.90
75821;DHT22;64454;51.984;9.838;2023-04-01T17:34:42;11.40;99.90
75821;DHT22;64454;51.984;9.838;2023-04-01T17:37:28;11.40;99.90
75821;DHT22;64454;51.984;9.838;2023-04-01T17:40:14;11.20;99.90
75821;DHT22;64454;51.984;9.838;2023-04-01T17:43:05;11.20;99.90
75821;DHT22;64454;51.984;9.838;2023-04-01T17:45:44;11.00;99.90
75821;DHT22;64454;51.984;9.838;2023-04-01T17:48:26;11.10;99.90
75821;DHT22;64454;51.984;9.838;2023-04-01T17:51:19;11.10;99.90
75821;DHT22;64454;51.984;9.838;2023-04-01T17:54:03;11.00;99.90
75821;DHT22;64454;51.984;9.838;2023-04-01T17:56:48;10.90;99.90
75821;DHT22;64454;51.984;9.838;2023-04-01T17:59:34;10.80;99.90
75821;DHT22;64454;51.984;9.838;2023-04-01T18:02:15;10.80;99.90
75821;DHT22;64454;51.984;9.838;2023-04-01T18:05:13;10.70;99.90
75821;DHT22;64454;51.984;9.838;2023-04-01T18:10:47;10.60;99.90